createdAt,value
2022-12-13T00:00:03.001Z,1523.9730
2022-12-13T00:00:14.212Z,1529.2100
2022-12-13T00:00:25.271Z,1532.7209
2022-12-13T00:00:36.968Z,1524.8430
2022-12-13T00:00:48.145Z,1523.1030
2022-12-13T00:00:59.331Z,1518.7710
2022-12-13T00:01:10.511Z,1530.9630
2022-12-13T00:01:21.601Z,1531.8420
2022-12-13T00:01:32.681Z,1523.1030
2022-12-13T00:01:43.874Z,1513.6050
2022-12-13T00:01:54.991Z,1525.7140
2022-12-13T00:02:06.239Z,1520.5010
2022-12-13T00:02:17.452Z,1525.7140
2022-12-13T00:02:28.637Z,1520.5010
2022-12-13T00:02:39.859Z,1529.2100
2022-12-13T00:02:51.007Z,1530.0861
2022-12-13T00:03:02.200Z,1530.9630
2022-12-13T00:03:13.412Z,1538.9050
2022-12-13T00:03:24.598Z,1534.4830
2022-12-13T00:03:35.849Z,1534.4830
2022-12-13T00:03:46.994Z,1526.5870
2022-12-13T00:03:58.158Z,1522.2350
2022-12-13T00:04:09.262Z,1532.7209
2022-12-13T00:04:20.357Z,1532.7209
2022-12-13T00:04:31.557Z,1523.9730
2022-12-13T00:04:42.693Z,1539.7920
2022-12-13T00:04:53.871Z,1528.3340
2022-12-13T00:05:05.093Z,1523.1030
2022-12-13T00:05:16.591Z,1548.7240
2022-12-13T00:05:27.831Z,1529.2100
2022-12-13T00:05:39.004Z,1520.5010
2022-12-13T00:05:50.118Z,1522.2350
2022-12-13T00:06:01.190Z,1523.9730
2022-12-13T00:06:12.292Z,1522.2350
2022-12-13T00:06:23.479Z,1517.0450
2022-12-13T00:06:34.530Z,1522.2350
2022-12-13T00:06:45.601Z,1527.4600
2022-12-13T00:06:56.775Z,1528.3340
2022-12-13T00:07:07.958Z,1522.2350
2022-12-13T00:07:19.171Z,1525.7140
2022-12-13T00:07:30.358Z,1532.7209
2022-12-13T00:07:41.571Z,1523.1030
2022-12-13T00:07:52.794Z,1520.5010
2022-12-13T00:08:04.047Z,1523.1030
2022-12-13T00:08:15.191Z,1518.7710
2022-12-13T00:08:26.407Z,1522.2350
2022-12-13T00:08:37.431Z,1529.2100
2022-12-13T00:08:48.519Z,1524.8430
2022-12-13T00:08:59.640Z,1522.2350
2022-12-13T00:09:10.678Z,1523.1030
2022-12-13T00:09:21.732Z,1527.4600
2022-12-13T00:09:32.949Z,1523.9730
2022-12-13T00:09:44.000Z,1526.5870
2022-12-13T00:09:55.071Z,1523.1030
2022-12-13T00:10:06.202Z,1530.9630
2022-12-13T00:10:17.411Z,1530.9630
2022-12-13T00:10:28.601Z,1522.2350
2022-12-13T00:10:39.798Z,1526.5870
2022-12-13T00:10:50.851Z,1534.4830
2022-12-13T00:11:01.919Z,1525.7140
2022-12-13T00:11:13.075Z,1518.7710
2022-12-13T00:11:24.130Z,1529.2100
2022-12-13T00:11:35.201Z,1535.3650
2022-12-13T00:11:46.361Z,1527.4600
2022-12-13T00:11:57.414Z,1541.5699
2022-12-13T00:12:08.488Z,1535.3650
2022-12-13T00:12:19.648Z,1540.6810
2022-12-13T00:12:30.692Z,1517.0450
2022-12-13T00:12:41.767Z,1529.2100
2022-12-13T00:12:52.935Z,1530.9630
2022-12-13T00:13:04.122Z,1530.0861
2022-12-13T00:13:15.220Z,1539.7920
2022-12-13T00:13:26.300Z,1541.5699
2022-12-13T00:13:37.397Z,1528.3340
2022-12-13T00:13:48.624Z,1534.4830
2022-12-13T00:13:59.802Z,1539.7920
2022-12-13T00:14:10.849Z,1517.0450
2022-12-13T00:14:21.883Z,1534.4830
2022-12-13T00:14:33.099Z,1528.3340
2022-12-13T00:14:44.317Z,1535.3650
2022-12-13T00:14:55.488Z,1533.6010
2022-12-13T00:15:06.692Z,1527.4600
2022-12-13T00:15:17.882Z,1538.9050
2022-12-13T00:15:29.077Z,1538.9050
2022-12-13T00:15:40.308Z,1528.3340
2022-12-13T00:15:51.477Z,1530.9630
2022-12-13T00:16:02.682Z,1530.0861
2022-12-13T00:16:13.784Z,1535.3650
2022-12-13T00:16:24.934Z,1538.9050
2022-12-13T00:16:36.053Z,1539.7920
2022-12-13T00:16:47.302Z,1534.4830
2022-12-13T00:16:58.410Z,1528.3340
2022-12-13T00:17:09.568Z,1533.6010
2022-12-13T00:17:20.649Z,1538.9050
2022-12-13T00:17:31.708Z,1539.7920
2022-12-13T00:17:42.845Z,1536.2490
2022-12-13T00:17:54.059Z,1537.1331
2022-12-13T00:18:05.238Z,1532.7209
2022-12-13T00:18:16.459Z,1548.7240
2022-12-13T00:18:27.511Z,1554.1331
2022-12-13T00:18:38.590Z,1547.8260
2022-12-13T00:18:49.719Z,1541.5699
2022-12-13T00:19:00.943Z,1541.5699
2022-12-13T00:19:12.125Z,1543.3530
2022-12-13T00:19:23.331Z,1542.4611
2022-12-13T00:19:34.514Z,1538.9050
2022-12-13T00:19:45.781Z,1540.6810
2022-12-13T00:19:56.928Z,1548.7240
2022-12-13T00:20:08.127Z,1543.3530
2022-12-13T00:20:19.319Z,1546.0341
2022-12-13T00:20:30.400Z,1555.9440
2022-12-13T00:20:41.462Z,1548.7240
2022-12-13T00:20:52.632Z,1548.7240
2022-12-13T00:21:03.801Z,1549.6230
2022-12-13T00:21:14.903Z,1538.0179
2022-12-13T00:21:26.020Z,1552.3260
2022-12-13T00:21:37.081Z,1554.1331
2022-12-13T00:21:48.317Z,1548.7240
2022-12-13T00:21:59.481Z,1569.6650
2022-12-13T00:22:10.680Z,1543.3530
2022-12-13T00:22:21.888Z,1557.7600
2022-12-13T00:22:32.928Z,1547.8260
2022-12-13T00:22:43.999Z,1548.7240
2022-12-13T00:22:55.160Z,1558.6689
2022-12-13T00:23:06.210Z,1547.8260
2022-12-13T00:23:17.298Z,1555.0380
2022-12-13T00:23:28.456Z,1554.1331
2022-12-13T00:23:39.520Z,1564.1479
2022-12-13T00:23:50.582Z,1544.2450
2022-12-13T00:24:01.718Z,1551.4240
2022-12-13T00:24:12.800Z,1560.4910
2022-12-13T00:24:23.850Z,1550.5229
2022-12-13T00:24:35.013Z,1568.7430
2022-12-13T00:24:46.367Z,1568.7430
2022-12-13T00:24:57.457Z,1555.9440
2022-12-13T00:25:08.592Z,1559.5790
2022-12-13T00:25:19.815Z,1559.5790
2022-12-13T00:25:30.998Z,1572.4380
2022-12-13T00:25:42.218Z,1562.3170
2022-12-13T00:25:53.397Z,1554.1331
2022-12-13T00:26:04.620Z,1563.2321
2022-12-13T00:26:15.798Z,1555.0380
2022-12-13T00:26:27.019Z,1556.8510
2022-12-13T00:26:38.193Z,1566.9010
2022-12-13T00:26:49.418Z,1565.0640
2022-12-13T00:27:00.620Z,1565.9821
2022-12-13T00:27:11.812Z,1563.2321
2022-12-13T00:27:22.991Z,1567.8210
2022-12-13T00:27:34.219Z,1570.5880
2022-12-13T00:27:45.278Z,1566.9010
2022-12-13T00:27:56.337Z,1569.6650
2022-12-13T00:28:07.391Z,1565.0640
2022-12-13T00:28:19.047Z,1566.9010
2022-12-13T00:28:30.090Z,1561.4041
2022-12-13T00:28:41.172Z,1561.4041
2022-12-13T00:28:52.236Z,1571.5129
2022-12-13T00:29:03.301Z,1562.3170
2022-12-13T00:29:14.361Z,1570.5880
2022-12-13T00:29:25.408Z,1583.6300
2022-12-13T00:29:36.483Z,1569.6650
2022-12-13T00:29:47.667Z,1570.5880
2022-12-13T00:29:58.710Z,1572.4380
2022-12-13T00:30:09.782Z,1573.3650
2022-12-13T00:30:20.811Z,1574.2920
2022-12-13T00:30:31.927Z,1581.7540
2022-12-13T00:30:43.729Z,1568.7430
2022-12-13T00:30:54.871Z,1570.5880
2022-12-13T00:31:43.225Z,1598.8020
2022-12-13T00:32:00.369Z,1552.3260
2022-12-13T00:32:12.396Z,1550.5229
2022-12-13T00:32:23.551Z,1555.9440
2022-12-13T00:32:34.670Z,1561.4041
2022-12-13T00:32:45.891Z,1561.4041
2022-12-13T00:32:57.080Z,1578.0140
2022-12-13T00:33:08.282Z,1562.3170
2022-12-13T00:33:19.482Z,1578.0140
2022-12-13T00:33:30.679Z,1578.0140
2022-12-13T00:33:41.729Z,1579.8820
2022-12-13T00:33:52.811Z,1572.4380
2022-12-13T00:34:03.974Z,1569.6650
2022-12-13T00:34:14.998Z,1578.0140
2022-12-13T00:34:26.047Z,1574.2920
2022-12-13T00:34:37.260Z,1577.0820
2022-12-13T00:34:48.476Z,1569.6650
2022-12-13T00:34:59.648Z,1583.6300
2022-12-13T00:35:10.831Z,1562.3170
2022-12-13T00:35:22.042Z,1574.2920
2022-12-13T00:35:33.239Z,1578.0140
2022-12-13T00:35:44.438Z,1583.6300
2022-12-13T00:35:55.648Z,1574.2920
2022-12-13T00:36:06.851Z,1581.7540
2022-12-13T00:36:17.907Z,1572.4380
2022-12-13T00:36:28.978Z,1582.6910
2022-12-13T00:36:40.132Z,1594.9821
2022-12-13T00:36:51.201Z,1593.0790
2022-12-13T00:37:02.274Z,1587.3960
2022-12-13T00:37:13.408Z,1593.0790
2022-12-13T00:37:24.481Z,1589.2860
2022-12-13T00:37:35.567Z,1582.6910
2022-12-13T00:37:46.688Z,1589.2860
2022-12-13T00:37:57.728Z,1589.2860
2022-12-13T00:38:08.779Z,1591.1801
2022-12-13T00:38:19.838Z,1594.0300
2022-12-13T00:38:30.890Z,1582.6910
2022-12-13T00:38:42.057Z,1592.1290
2022-12-13T00:38:53.246Z,1596.8900
2022-12-13T00:39:04.451Z,1592.1290
2022-12-13T00:39:15.638Z,1574.2920
2022-12-13T00:39:26.860Z,1595.9351
2022-12-13T00:39:37.917Z,1594.9821
2022-12-13T00:39:49.017Z,1598.8020
2022-12-13T00:40:00.130Z,1589.2860
2022-12-13T00:40:11.319Z,1604.5670
2022-12-13T00:40:22.511Z,1596.8900
2022-12-13T00:40:33.749Z,1591.1801
2022-12-13T00:40:44.943Z,1598.8020
2022-12-13T00:40:56.132Z,1602.6410
2022-12-13T00:41:07.221Z,1599.7600
2022-12-13T00:41:18.298Z,1597.8459
2022-12-13T00:41:29.400Z,1599.7600
2022-12-13T00:41:40.471Z,1605.5320
2022-12-13T00:41:51.548Z,1594.0300
2022-12-13T00:42:02.681Z,1604.5670
2022-12-13T00:42:13.883Z,1609.4030
2022-12-13T00:42:25.080Z,1598.8020
2022-12-13T00:42:36.270Z,1600.7190
2022-12-13T00:42:47.329Z,1608.4340
2022-12-13T00:42:58.397Z,1589.2860
2022-12-13T00:43:09.568Z,1600.7190
2022-12-13T00:43:20.760Z,1597.8459
2022-12-13T00:43:31.971Z,1601.6801
2022-12-13T00:43:43.150Z,1604.5670
2022-12-13T00:43:54.371Z,1619.1630
2022-12-13T00:44:05.568Z,1606.4980
2022-12-13T00:44:16.780Z,1608.4340
2022-12-13T00:44:27.959Z,1609.4030
2022-12-13T00:44:39.170Z,1614.2679
2022-12-13T00:44:50.699Z,1624.0880
2022-12-13T00:45:01.891Z,1610.3740
2022-12-13T00:45:13.512Z,1605.5320
2022-12-13T00:45:24.967Z,1607.4650
2022-12-13T00:45:36.011Z,1624.0880
2022-12-13T00:45:47.139Z,1613.2930
2022-12-13T00:45:58.213Z,1620.1460
2022-12-13T00:46:09.319Z,1610.3740
2022-12-13T00:46:20.629Z,1613.2930
2022-12-13T00:46:31.908Z,1620.1460
2022-12-13T00:46:43.054Z,1623.1000
2022-12-13T00:46:54.200Z,1614.2679
2022-12-13T00:47:05.397Z,1613.2930
2022-12-13T00:47:16.611Z,1615.2450
2022-12-13T00:47:27.799Z,1618.1820
2022-12-13T00:47:38.847Z,1606.4980
2022-12-13T00:47:49.910Z,1622.1140
2022-12-13T00:48:01.091Z,1615.2450
2022-12-13T00:48:12.271Z,1621.1290
2022-12-13T00:48:23.492Z,1618.1820
2022-12-13T00:48:34.678Z,1619.1630
2022-12-13T00:48:45.971Z,1625.0760
2022-12-13T00:48:57.081Z,1615.2450
2022-12-13T00:49:08.303Z,1633.0280
2022-12-13T00:49:19.494Z,1628.0490
2022-12-13T00:49:30.702Z,1613.2930
2022-12-13T00:49:41.758Z,1618.1820
2022-12-13T00:49:52.867Z,1624.0880
2022-12-13T00:50:04.737Z,1626.0660
2022-12-13T00:50:15.797Z,1628.0490
2022-12-13T00:50:26.867Z,1628.0490
2022-12-13T00:50:37.919Z,1639.0420
2022-12-13T00:50:49.078Z,1617.2020
2022-12-13T00:51:00.293Z,1626.0660
2022-12-13T00:51:11.353Z,1631.0320
2022-12-13T00:51:22.440Z,1618.1820
2022-12-13T00:51:33.567Z,1628.0490
2022-12-13T00:51:44.638Z,1626.0660
2022-12-13T00:51:55.705Z,1629.0420
2022-12-13T00:52:06.843Z,1625.0760
2022-12-13T00:52:18.037Z,1633.0280
2022-12-13T00:52:29.259Z,1624.0880
2022-12-13T00:52:40.439Z,1621.1290
2022-12-13T00:52:51.648Z,1642.0660
2022-12-13T00:53:02.837Z,1641.0570
2022-12-13T00:53:14.041Z,1634.0270
2022-12-13T00:53:25.238Z,1633.0280
2022-12-13T00:53:36.460Z,1636.0291
2022-12-13T00:53:47.522Z,1634.0270
2022-12-13T00:53:58.588Z,1637.0320
2022-12-13T00:54:09.722Z,1639.0420
2022-12-13T00:54:20.936Z,1638.0370
2022-12-13T00:54:32.132Z,1637.0320
2022-12-13T00:54:43.351Z,1644.0890
2022-12-13T00:54:54.448Z,1649.1660
2022-12-13T00:55:05.509Z,1649.1660
2022-12-13T00:55:17.003Z,1636.0291
2022-12-13T00:55:28.177Z,1638.0370
2022-12-13T00:55:39.328Z,1635.0280
2022-12-13T00:55:50.401Z,1632.0291
2022-12-13T00:56:01.461Z,1639.0420
2022-12-13T00:56:12.612Z,1638.0370
2022-12-13T00:56:23.678Z,1646.1160
2022-12-13T00:56:34.751Z,1642.0660
2022-12-13T00:56:45.945Z,1640.0490
2022-12-13T00:56:57.103Z,1645.1021
2022-12-13T00:57:09.283Z,1652.2280
2022-12-13T00:57:20.448Z,1646.1160
2022-12-13T00:57:31.631Z,1644.0890
2022-12-13T00:57:42.848Z,1648.1479
2022-12-13T00:57:53.912Z,1646.1160
2022-12-13T00:58:04.981Z,1645.1021
2022-12-13T00:58:16.121Z,1638.0370
2022-12-13T00:58:27.188Z,1638.0370
2022-12-13T00:58:38.261Z,1652.2280
2022-12-13T00:58:52.135Z,1635.0280
2022-12-13T00:59:03.852Z,1630.0370
2022-12-13T00:59:15.016Z,1638.0370
2022-12-13T00:59:26.071Z,1656.3280
2022-12-13T00:59:37.137Z,1649.1660
2022-12-13T00:59:48.288Z,1632.0291
2022-12-13T00:59:59.391Z,1648.1479
2022-12-13T01:00:10.475Z,1655.3010
2022-12-13T01:00:21.557Z,1648.1479
2022-12-13T01:00:32.610Z,1640.0490
2022-12-13T01:00:43.692Z,1651.2061
2022-12-13T01:00:54.848Z,1648.1479
2022-12-13T01:01:05.976Z,1656.3280
2022-12-13T01:01:17.185Z,1655.3010
2022-12-13T01:01:28.315Z,1657.3560
2022-12-13T01:01:39.467Z,1655.3010
2022-12-13T01:01:50.790Z,1659.4160
2022-12-13T01:02:01.953Z,1650.1851
2022-12-13T01:02:13.047Z,1647.1310
2022-12-13T01:02:24.131Z,1644.0890
2022-12-13T01:02:35.321Z,1658.3850
2022-12-13T01:02:46.522Z,1658.3850
2022-12-13T01:02:57.778Z,1654.2750
2022-12-13T01:03:08.966Z,1663.5510
2022-12-13T01:03:20.194Z,1657.3560
2022-12-13T01:03:31.396Z,1661.4810
2022-12-13T01:03:42.480Z,1646.1160
2022-12-13T01:03:53.548Z,1658.3850
2022-12-13T01:04:04.614Z,1662.5160
2022-12-13T01:04:15.829Z,1658.3850
2022-12-13T01:04:27.007Z,1660.4480
2022-12-13T01:04:38.214Z,1661.4810
2022-12-13T01:04:49.271Z,1646.1160
2022-12-13T01:05:00.410Z,1662.5160
2022-12-13T01:05:11.686Z,1663.5510
2022-12-13T01:05:47.282Z,1649.1660
2022-12-13T01:06:13.551Z,1634.0270
2022-12-13T01:06:14.996Z,1640.0490
2022-12-13T01:06:15.617Z,1636.0291
2022-12-13T01:06:27.377Z,1626.0660
2022-12-13T01:06:38.418Z,1636.0291
2022-12-13T01:06:49.546Z,1637.0320
2022-12-13T01:07:00.615Z,1632.0291
2022-12-13T01:07:11.808Z,1652.2280
2022-12-13T01:07:22.879Z,1639.0420
2022-12-13T01:07:33.941Z,1648.1479
2022-12-13T01:07:45.084Z,1656.3280
2022-12-13T01:07:56.232Z,1654.2750
2022-12-13T01:08:07.341Z,1648.1479
2022-12-13T01:08:18.481Z,1656.3280
2022-12-13T01:08:29.584Z,1662.5160
2022-12-13T01:08:40.648Z,1657.3560
2022-12-13T01:08:51.722Z,1666.6670
2022-12-13T01:09:02.856Z,1662.5160
2022-12-13T01:09:14.037Z,1664.5890
2022-12-13T01:09:25.251Z,1659.4160
2022-12-13T01:09:36.320Z,1657.3560
2022-12-13T01:09:47.391Z,1668.7500
2022-12-13T01:09:58.518Z,1663.5510
2022-12-13T01:10:09.784Z,1672.9320
2022-12-13T01:10:20.924Z,1658.3850
2022-12-13T01:10:32.141Z,1664.5890
2022-12-13T01:10:43.191Z,1658.3850
2022-12-13T01:10:54.242Z,1664.5890
2022-12-13T01:11:05.399Z,1665.6270
2022-12-13T01:11:16.439Z,1669.7939
2022-12-13T01:11:27.501Z,1658.3850
2022-12-13T01:11:38.680Z,1661.4810
2022-12-13T01:11:49.755Z,1662.5160
2022-12-13T01:12:00.846Z,1664.5890
2022-12-13T01:12:11.957Z,1651.2061
2022-12-13T01:12:23.171Z,1670.8390
2022-12-13T01:12:34.353Z,1672.9320
2022-12-13T01:12:45.455Z,1664.5890
2022-12-13T01:12:56.508Z,1668.7500
2022-12-13T01:13:07.661Z,1671.8850
2022-12-13T01:13:18.838Z,1677.1360
2022-12-13T01:13:30.051Z,1666.6670
2022-12-13T01:13:41.120Z,1658.3850
2022-12-13T01:13:52.179Z,1669.7939
2022-12-13T01:14:03.231Z,1673.9810
2022-12-13T01:14:14.327Z,1668.7500
2022-12-13T01:14:25.408Z,1678.1899
2022-12-13T01:14:36.610Z,1677.1360
2022-12-13T01:14:50.671Z,1664.5890
2022-12-13T01:15:04.759Z,1668.7500
2022-12-13T01:15:16.291Z,1675.0310
2022-12-13T01:15:27.527Z,1666.6670
2022-12-13T01:15:38.692Z,1668.7500
2022-12-13T01:15:49.883Z,1672.9320
2022-12-13T01:16:00.958Z,1667.7080
2022-12-13T01:16:12.031Z,1673.9810
2022-12-13T01:16:23.236Z,1683.4800
2022-12-13T01:16:34.395Z,1672.9320
2022-12-13T01:16:45.481Z,1663.5510
2022-12-13T01:16:56.671Z,1669.7939
2022-12-13T01:17:07.705Z,1657.3560
2022-12-13T01:17:18.847Z,1679.2450
2022-12-13T01:17:30.030Z,1680.3020
2022-12-13T01:17:41.251Z,1666.6670
2022-12-13T01:17:52.311Z,1669.7939
2022-12-13T01:18:03.387Z,1679.2450
2022-12-13T01:18:14.438Z,1677.1360
2022-12-13T01:18:25.492Z,1681.3600
2022-12-13T01:18:36.600Z,1685.6060
2022-12-13T01:18:47.814Z,1685.6060
2022-12-13T01:18:59.002Z,1684.5430
2022-12-13T01:19:10.209Z,1686.6710
2022-12-13T01:19:21.306Z,1686.6710
2022-12-13T01:19:32.339Z,1686.6710
2022-12-13T01:19:43.479Z,1667.7080
2022-12-13T01:19:54.699Z,1689.8730
2022-12-13T01:20:05.758Z,1690.9440
2022-12-13T01:20:16.863Z,1677.1360
2022-12-13T01:20:27.958Z,1686.6710
2022-12-13T01:20:39.171Z,1681.3600
2022-12-13T01:20:50.357Z,1690.9440
2022-12-13T01:21:01.570Z,1677.1360
2022-12-13T01:21:12.755Z,1687.7371
2022-12-13T01:21:23.808Z,1675.0310
2022-12-13T01:21:34.872Z,1677.1360
2022-12-13T01:21:46.047Z,1694.1620
2022-12-13T01:21:57.237Z,1683.4800
2022-12-13T01:22:11.066Z,1679.2450
2022-12-13T01:22:22.210Z,1689.8730
2022-12-13T01:22:33.413Z,1685.6060
2022-12-13T01:22:44.478Z,1687.7371
2022-12-13T01:22:55.544Z,1681.3600
2022-12-13T01:23:06.607Z,1694.1620
2022-12-13T01:23:17.679Z,1689.8730
2022-12-13T01:23:28.770Z,1683.4800
2022-12-13T01:23:39.838Z,1688.8051
2022-12-13T01:23:50.920Z,1687.7371
2022-12-13T01:24:02.053Z,1681.3600
2022-12-13T01:24:13.118Z,1687.7371
2022-12-13T01:24:24.179Z,1698.4730
2022-12-13T01:24:35.324Z,1686.6710
2022-12-13T01:24:46.541Z,1702.8060
2022-12-13T01:24:57.710Z,1685.6060
2022-12-13T01:25:08.758Z,1688.8051
2022-12-13T01:25:19.835Z,1679.2450
2022-12-13T01:25:30.998Z,1684.5430
2022-12-13T01:25:42.208Z,1692.0150
2022-12-13T01:25:53.412Z,1698.4730
2022-12-13T01:26:04.509Z,1694.1620
2022-12-13T01:26:15.570Z,1697.3940
2022-12-13T01:26:26.628Z,1684.5430
2022-12-13T01:26:37.689Z,1700.6370
2022-12-13T01:26:48.757Z,1696.3149
2022-12-13T01:26:59.811Z,1693.0880
2022-12-13T01:27:10.895Z,1697.3940
2022-12-13T01:27:22.040Z,1699.5540
2022-12-13T01:27:33.113Z,1685.6060
2022-12-13T01:27:44.168Z,1698.4730
2022-12-13T01:27:55.331Z,1709.3470
2022-12-13T01:28:06.531Z,1689.8730
2022-12-13T01:28:17.717Z,1702.8060
2022-12-13T01:28:28.921Z,1699.5540
2022-12-13T01:28:39.977Z,1694.1620
2022-12-13T01:28:51.039Z,1685.6060
2022-12-13T01:29:02.218Z,1684.5430
2022-12-13T01:29:13.278Z,1687.7371
2022-12-13T01:29:24.351Z,1702.8060
2022-12-13T01:29:37.088Z,1686.6710
2022-12-13T01:29:48.285Z,1704.9810
2022-12-13T01:29:59.493Z,1700.6370
2022-12-13T01:30:10.679Z,1703.8929
2022-12-13T01:30:21.921Z,1713.7360
2022-12-13T01:30:33.054Z,1690.9440
2022-12-13T01:30:44.360Z,1704.9810
2022-12-13T01:30:55.570Z,1707.1610
2022-12-13T01:31:06.783Z,1704.9810
2022-12-13T01:31:17.936Z,1709.3470
2022-12-13T01:31:29.094Z,1701.7209
2022-12-13T01:31:40.292Z,1704.9810
2022-12-13T01:31:51.500Z,1706.0699
2022-12-13T01:32:02.683Z,1702.8060
2022-12-13T01:32:13.740Z,1702.8060
2022-12-13T01:32:24.818Z,1712.6360
2022-12-13T01:32:35.971Z,1700.6370
2022-12-13T01:32:47.038Z,1702.8060
2022-12-13T01:32:58.108Z,1703.8929
2022-12-13T01:33:14.297Z,1692.0150
2022-12-13T01:33:26.202Z,1685.6060
2022-12-13T01:33:37.401Z,1698.4730
2022-12-13T01:33:48.459Z,1684.5430
2022-12-13T01:33:59.529Z,1702.8060
2022-12-13T01:34:10.846Z,1699.5540
2022-12-13T01:34:21.877Z,1708.2531
2022-12-13T01:34:38.876Z,1685.6060
2022-12-13T01:34:49.919Z,1687.7371
2022-12-13T01:35:00.981Z,1694.1620
2022-12-13T01:35:12.560Z,1707.1610
2022-12-13T01:35:24.061Z,1701.7209
2022-12-13T01:35:35.168Z,1703.8929
2022-12-13T01:35:46.231Z,1707.1610
2022-12-13T01:35:57.318Z,1704.9810
2022-12-13T01:36:08.459Z,1704.9810
2022-12-13T01:36:19.641Z,1700.6370
2022-12-13T01:36:38.117Z,1707.1610
2022-12-13T01:36:49.458Z,1697.3940
2022-12-13T01:37:00.622Z,1692.0150
2022-12-13T01:37:11.792Z,1689.8730
2022-12-13T01:37:26.069Z,1694.1620
2022-12-13T01:37:37.707Z,1685.6060
2022-12-13T01:37:48.968Z,1678.1899
2022-12-13T01:38:00.007Z,1689.8730
2022-12-13T01:38:15.962Z,1703.8929
2022-12-13T01:38:28.012Z,1677.1360
2022-12-13T01:38:39.171Z,1677.1360
2022-12-13T01:38:50.271Z,1702.8060
2022-12-13T01:39:01.333Z,1702.8060
2022-12-13T01:39:18.298Z,1686.6710
2022-12-13T01:39:29.415Z,1689.8730
2022-12-13T01:39:40.610Z,1696.3149
2022-12-13T01:39:51.801Z,1699.5540
2022-12-13T01:40:08.918Z,1685.6060
2022-12-13T01:40:26.551Z,1682.4200
2022-12-13T01:40:38.568Z,1692.0150
2022-12-13T01:40:50.077Z,1671.8850
2022-12-13T01:41:01.248Z,1668.7500
2022-12-13T01:41:17.736Z,1684.5430
2022-12-13T01:41:29.281Z,1687.7371
2022-12-13T01:41:40.384Z,1683.4800
2022-12-13T01:41:51.488Z,1684.5430
2022-12-13T01:42:02.699Z,1689.8730
2022-12-13T01:42:13.880Z,1687.7371
2022-12-13T01:42:25.091Z,1684.5430
2022-12-13T01:42:36.280Z,1694.1620
2022-12-13T01:42:47.480Z,1680.3020
2022-12-13T01:42:58.677Z,1685.6060
2022-12-13T01:43:14.834Z,1685.6060
2022-12-13T01:43:26.851Z,1684.5430
2022-12-13T01:43:37.912Z,1678.1899
2022-12-13T01:43:48.993Z,1679.2450
2022-12-13T01:44:00.128Z,1695.2380
2022-12-13T01:44:11.344Z,1700.6370
2022-12-13T01:44:22.562Z,1695.2380
2022-12-13T01:44:33.718Z,1697.3940
2022-12-13T01:44:44.808Z,1685.6060
2022-12-13T01:44:55.887Z,1690.9440
2022-12-13T01:45:07.018Z,1700.6370
2022-12-13T01:45:18.211Z,1689.8730
2022-12-13T01:45:29.439Z,1685.6060
2022-12-13T01:45:40.597Z,1703.8929
2022-12-13T01:45:51.864Z,1707.1610
2022-12-13T01:46:03.038Z,1699.5540
2022-12-13T01:46:14.252Z,1690.9440
2022-12-13T01:46:25.420Z,1707.1610
2022-12-13T01:46:36.676Z,1693.0880
2022-12-13T01:46:47.718Z,1714.8361
2022-12-13T01:46:58.781Z,1711.5380
2022-12-13T01:47:09.871Z,1701.7209
2022-12-13T01:47:21.091Z,1709.3470
2022-12-13T01:47:32.209Z,1699.5540
2022-12-13T01:47:43.258Z,1710.4420
2022-12-13T01:47:54.317Z,1714.8361
2022-12-13T01:48:05.381Z,1714.8361
2022-12-13T01:48:16.441Z,1708.2531
2022-12-13T01:48:27.641Z,1702.8060
2022-12-13T01:48:38.833Z,1702.8060
2022-12-13T01:48:50.060Z,1718.1470
2022-12-13T01:49:01.241Z,1704.9810
2022-12-13T01:49:20.046Z,1703.8929
2022-12-13T01:49:29.408Z,1702.8060
2022-12-13T01:49:40.648Z,1690.9440
2022-12-13T01:49:51.800Z,1704.9810
2022-12-13T01:50:02.999Z,1715.9380
2022-12-13T01:50:14.214Z,1702.8060
2022-12-13T01:50:25.271Z,1715.9380
2022-12-13T01:50:36.380Z,1701.7209
2022-12-13T01:50:47.481Z,1707.1610
2022-12-13T01:50:58.562Z,1704.9810
2022-12-13T01:51:09.662Z,1712.6360
2022-12-13T01:51:20.780Z,1718.1470
2022-12-13T01:51:31.992Z,1703.8929
2022-12-13T01:51:43.171Z,1709.3470
2022-12-13T01:51:54.385Z,1702.8060
2022-12-13T01:52:05.585Z,1703.8929
2022-12-13T01:52:16.757Z,1709.3470
2022-12-13T01:52:27.800Z,1717.0420
2022-12-13T01:52:38.881Z,1717.0420
2022-12-13T01:52:50.040Z,1728.1550
2022-12-13T01:53:01.124Z,1706.0699
2022-12-13T01:53:12.232Z,1706.0699
2022-12-13T01:53:23.355Z,1710.4420
2022-12-13T01:53:34.542Z,1714.8361
2022-12-13T01:53:45.607Z,1723.6930
2022-12-13T01:53:56.663Z,1717.0420
2022-12-13T01:54:07.798Z,1714.8361
2022-12-13T01:54:21.218Z,1729.2750
2022-12-13T01:54:33.573Z,1710.4420
2022-12-13T01:54:46.748Z,1720.3610
2022-12-13T01:55:03.591Z,1720.3610
2022-12-13T01:55:15.058Z,1712.6360
2022-12-13T01:55:26.201Z,1713.7360
2022-12-13T01:55:41.514Z,1722.5811
2022-12-13T01:55:53.135Z,1700.6370
2022-12-13T01:56:04.291Z,1707.1610
2022-12-13T01:56:15.493Z,1696.3149
2022-12-13T01:56:26.558Z,1715.9380
2022-12-13T01:56:37.639Z,1711.5380
2022-12-13T01:56:48.781Z,1698.4730
2022-12-13T01:57:00.830Z,1718.1470
2022-12-13T01:57:12.154Z,1695.2380
2022-12-13T01:57:23.335Z,1699.5540
2022-12-13T01:57:34.521Z,1718.1470
2022-12-13T01:57:46.042Z,1720.3610
2022-12-13T01:57:57.311Z,1723.6930
2022-12-13T01:58:08.371Z,1709.3470
2022-12-13T01:58:19.448Z,1722.5811
2022-12-13T01:58:30.521Z,1725.9210
2022-12-13T01:58:41.744Z,1721.4700
2022-12-13T01:58:52.919Z,1721.4700
2022-12-13T01:59:04.130Z,1710.4420
2022-12-13T01:59:15.317Z,1707.1610
2022-12-13T01:59:26.533Z,1724.8060
2022-12-13T01:59:37.714Z,1729.2750
2022-12-13T01:59:48.939Z,1718.1470
2022-12-13T02:00:00.125Z,1711.5380
2022-12-13T02:00:11.332Z,1731.5179
2022-12-13T02:00:22.520Z,1727.0380
2022-12-13T02:00:33.731Z,1724.8060
2022-12-13T02:00:44.973Z,1703.8929
2022-12-13T02:00:56.137Z,1717.0420
2022-12-13T02:01:07.359Z,1729.2750
2022-12-13T02:01:18.481Z,1719.2531
2022-12-13T02:01:29.823Z,1731.5179
2022-12-13T02:01:40.948Z,1727.0380
2022-12-13T02:01:52.129Z,1715.9380
2022-12-13T02:02:09.079Z,1718.1470
2022-12-13T02:02:20.281Z,1724.8060
2022-12-13T02:02:31.502Z,1721.4700
2022-12-13T02:02:42.671Z,1729.2750
2022-12-13T02:02:53.891Z,1711.5380
2022-12-13T02:03:05.077Z,1731.5179
2022-12-13T02:03:21.269Z,1714.8361
2022-12-13T02:03:33.105Z,1721.4700
2022-12-13T02:03:44.161Z,1702.8060
2022-12-13T02:03:55.319Z,1711.5380
2022-12-13T02:04:06.532Z,1727.0380
2022-12-13T02:04:17.591Z,1729.2750
2022-12-13T02:04:28.663Z,1715.9380
2022-12-13T02:04:44.130Z,1715.9380
2022-12-13T02:04:56.861Z,1701.7209
2022-12-13T02:05:08.057Z,1722.5811
2022-12-13T02:05:19.390Z,1708.2531
2022-12-13T02:05:30.760Z,1730.3950
2022-12-13T02:05:41.880Z,1710.4420
2022-12-13T02:05:53.108Z,1707.1610
2022-12-13T02:06:04.286Z,1728.1550
2022-12-13T02:06:15.340Z,1711.5380
2022-12-13T02:06:26.432Z,1718.1470
2022-12-13T02:06:37.481Z,1722.5811
2022-12-13T02:06:48.552Z,1712.6360
2022-12-13T02:06:59.669Z,1734.8929
2022-12-13T02:07:10.841Z,1731.5179
2022-12-13T02:07:23.772Z,1713.7360
2022-12-13T02:07:34.853Z,1710.4420
2022-12-13T02:07:46.044Z,1728.1550
2022-12-13T02:07:57.202Z,1721.4700
2022-12-13T02:08:08.308Z,1709.3470
2022-12-13T02:08:19.409Z,1733.7660
2022-12-13T02:08:30.555Z,1715.9380
2022-12-13T02:08:47.479Z,1704.9810
2022-12-13T02:08:58.671Z,1707.1610
2022-12-13T02:09:09.718Z,1714.8361
2022-12-13T02:09:20.779Z,1708.2531
2022-12-13T02:09:31.982Z,1730.3950
2022-12-13T02:09:43.157Z,1718.1470
2022-12-13T02:09:56.675Z,1711.5380
2022-12-13T02:10:08.481Z,1728.1550
2022-12-13T02:10:19.652Z,1729.2750